Meteorological Aerodrome Report (METAR)

METAR

METAR for:NVSC (Vanua Lava/Sola Airport)
Text:NVSC 250600Z 00000KT 9999 SCT020 27/23 Q1009 RMK NIL
Temperature: 27.0°C ( 81°F)
Dewpoint: 23.0°C ( 73°F) [RH = 79%]
Pressure (altimeter):29.79 inches Hg (1009.0 mb)
Winds:calm
Visibility:6 or more sm (10+ km)
Ceiling:at least 12,000 feet AGL
Clouds: scattered clouds at 2000 feet AGL

METAR

METAR for:NVSG (Ambae/Longana Airport)
Text:NVSG 250600Z 00000KT 9999 BKN020 27/24 Q1010 RMK HZ
Temperature: 27.0°C ( 81°F)
Dewpoint: 24.0°C ( 75°F) [RH = 84%]
Pressure (altimeter):29.82 inches Hg (1010.0 mb)
Winds:calm
Visibility:6 or more sm (10+ km)
Ceiling:2000 feet AGL
Clouds: broken clouds at 2000 feet AGL

METAR

METAR for:NVSS (Santo/Pekoa International Airport)
Text:NVSS 250600Z VRB03KT 9999 BKN020 27/23 Q1009 RMK NIL
Temperature: 27.0°C ( 81°F)
Dewpoint: 23.0°C ( 73°F) [RH = 79%]
Pressure (altimeter):29.79 inches Hg (1009.0 mb)
Winds:variable direction winds at 3 MPH (3 knots; 1.5 m/s)
Visibility:6 or more sm (10+ km)
Ceiling:2000 feet AGL
Clouds: broken clouds at 2000 feet AGL

METAR

METAR for:NVSL (Malekula/Lamap Airport)
Text:No data found

METAR

METAR for:NVVV (Efate/Bauerfield International Airport)
Text:NVVV 250600Z 30005KT 9999 FEW025 27/23 Q1009 RMK NIL
Temperature: 27.0°C ( 81°F)
Dewpoint: 23.0°C ( 73°F) [RH = 79%]
Pressure (altimeter):29.79 inches Hg (1009.0 mb)
Winds:from the WNW (300 degrees) at 6 MPH (5 knots; 2.6 m/s)
Visibility:6 or more sm (10+ km)
Ceiling:at least 12,000 feet AGL
Clouds: few clouds at 2500 feet AGL

METAR

METAR for:NVVW (Tanna/WhiteGrass International Airport)
Text:NVVW 250600Z 15005KT 9999 SCT018 BKN110 26/24 Q1010 RMK NIL
Temperature: 26.0°C ( 79°F)
Dewpoint: 24.0°C ( 75°F) [RH = 89%]
Pressure (altimeter):29.82 inches Hg (1010.0 mb)
Winds:from the SSE (150 degrees) at 6 MPH (5 knots; 2.6 m/s)
Visibility:6 or more sm (10+ km)
Ceiling:11000 feet AGL
Clouds: scattered clouds at 1800 feet AGL, broken clouds at 11000 feet AGL

METAR

METAR for:NVVA (Aneityum/Anelcahuat Airport)
Text:NVVA 250300Z 00000KT 9999 BKN020 FEW025CB OVC100 25/24 Q1010 RMK RESH
Temperature: 25.0°C ( 77°F)
Dewpoint: 24.0°C ( 75°F) [RH = 94%]
Pressure (altimeter):29.82 inches Hg (1010.0 mb)
Winds:calm
Visibility:6 or more sm (10+ km)
Ceiling:2000 feet AGL
Clouds: broken clouds at 2000 feet AGL, few clouds at 2500 feet AGL, overcast cloud deck at 10000 feet AGL

METAR

ADDS METAR Data INFO
IDs: Format: Raw Decoded Include TAF

Data at: 0655 UTC 25 May 2017

NVSC 250600Z 00000KT 9999 SCT020 27/23 Q1009 RMK NIL

NVSG 250600Z 00000KT 9999 BKN020 27/24 Q1010 RMK HZ

NVSS 250600Z VRB03KT 9999 BKN020 27/23 Q1009 RMK NIL

No METAR found for NVSL

NVVV 250600Z 30005KT 9999 FEW025 27/23 Q1009 RMK NIL

NVVW 250600Z 15005KT 9999 SCT018 BKN110 26/24 Q1010 RMK NIL

NVVA 250300Z 00000KT 9999 BKN020 FEW025CB OVC100 25/24 Q1010 RMK RESH